Skip Navigation LinksHome page > Weather > Current weather Skip Navigation Links

Current Weather

Eureka, Nunavut

For information only: do not use for flight planning or navigation.
Latest weather
Observation time Saturday, November 1, 2014 4:00 AM CDT
Local time Saturday, November 1, 2014 5:08 AM CDT
Flight conditions Visual Meteorological Conditions
Winds
Wind direction South-Southeast (150°)
Wind speed 21 mph
Visibility 15 mi.
Sky condition
Ceiling 11,000 ft. overcast
Cloud layer overcast 11,000 ft.
Temperature 7°F
Dewpoint 0°F
Altimeter 29.99 in.Hg
Derived measurements
Relative humidity 72%
Wind chill -13°F
Density altitude -3680 ft.
Sea-level pressure 30.00 in.Hg
METAR CWEU 010900Z 15018KT 15SM OVC110 M14/M18 A2999 RMK AC8 SLP158

Settings

Location code

InnerDrive.Weather 4.0.5399.0 Release CLR 4.0.30319.34014
Copyright ©2014 Inner Drive Technology. All rights reserved. Portions Copyright ©1986-2014 David Braverman.

Find weather

Site navigation


Skip Navigation Links

Place info

Page info

PayPal - The safer, easier way to pay online!

Return home.

Copyright ©2014 Inner Drive Technology. Purveyors of fine, hand-crafted computer software. Page printed 2014-11-01T10:08:24 UTC.